createdAt,value
2022-11-02T00:00:15.388Z,0
2022-11-02T00:06:35.302Z,0
2022-11-02T00:12:58.387Z,0
2022-11-02T00:19:18.341Z,0
2022-11-02T00:25:41.313Z,0
2022-11-02T00:32:01.364Z,0
2022-11-02T00:38:24.336Z,0
2022-11-02T00:44:44.356Z,0
2022-11-02T00:51:07.347Z,0
2022-11-02T00:57:27.402Z,0
2022-11-02T01:03:50.326Z,0
2022-11-02T01:10:10.356Z,0
2022-11-02T01:16:33.441Z,0
2022-11-02T01:22:53.327Z,0
2022-11-02T01:29:16.400Z,0
2022-11-02T01:35:36.365Z,0
2022-11-02T01:41:59.360Z,0
2022-11-02T01:48:19.374Z,0
2022-11-02T01:54:42.365Z,0
2022-11-02T02:01:02.403Z,0
2022-11-02T02:07:25.333Z,0
2022-11-02T02:13:45.373Z,0
2022-11-02T02:20:08.331Z,0
2022-11-02T02:26:28.329Z,0
2022-11-02T02:32:51.390Z,0
2022-11-02T02:39:11.307Z,0
2022-11-02T02:45:34.375Z,0
2022-11-02T02:51:54.341Z,0
2022-11-02T02:58:17.353Z,0
2022-11-02T03:04:37.333Z,0
2022-11-02T03:11:00.396Z,0
2022-11-02T03:17:20.349Z,0
2022-11-02T03:23:43.363Z,0
2022-11-02T03:30:03.367Z,0
2022-11-02T03:36:26.309Z,0
2022-11-02T03:42:46.398Z,0
2022-11-02T03:49:09.362Z,0
2022-11-02T03:55:29.400Z,0
2022-11-02T04:01:52.486Z,0
2022-11-02T04:08:12.363Z,0
2022-11-02T04:14:35.355Z,0
2022-11-02T04:20:55.306Z,0
2022-11-02T04:27:21.074Z,0
2022-11-02T04:33:38.312Z,0
2022-11-02T04:55:50.386Z,0
2022-11-02T05:02:13.396Z,0
2022-11-02T05:08:33.410Z,0
2022-11-02T05:14:56.364Z,0
2022-11-02T05:21:16.303Z,0
2022-11-02T05:27:39.381Z,0
2022-11-02T05:33:59.355Z,0
2022-11-02T05:40:22.399Z,0
2022-11-02T05:46:42.319Z,0
2022-11-02T05:53:05.659Z,1
2022-11-02T05:59:25.360Z,1
2022-11-02T06:05:48.376Z,4
2022-11-02T06:12:08.390Z,12
2022-11-02T06:18:31.331Z,32
2022-11-02T06:24:51.328Z,60
2022-11-02T06:31:14.408Z,100
2022-11-02T06:37:34.314Z,142
2022-11-02T06:43:57.395Z,205
2022-11-02T06:50:17.348Z,309
2022-11-02T06:56:40.340Z,361
2022-11-02T07:03:00.713Z,498
2022-11-02T07:09:23.692Z,664
2022-11-02T07:15:43.412Z,674
2022-11-02T07:22:07.377Z,671
2022-11-02T07:28:27.407Z,717
2022-11-02T07:34:50.379Z,744
2022-11-02T07:41:10.341Z,983
2022-11-02T07:47:33.399Z,969
2022-11-02T07:53:53.367Z,1137
2022-11-02T08:00:16.377Z,991
2022-11-02T08:06:36.358Z,1000
2022-11-02T08:12:59.324Z,1032
2022-11-02T08:19:19.371Z,1092
2022-11-02T08:25:42.438Z,1150
2022-11-02T08:32:02.393Z,1213
2022-11-02T08:38:25.341Z,1285
2022-11-02T08:44:45.371Z,1367
2022-11-02T08:51:08.412Z,1482
2022-11-02T08:57:28.328Z,1547
2022-11-02T09:03:51.449Z,1778
2022-11-02T09:10:11.331Z,1892
2022-11-02T09:16:37.487Z,2066
2022-11-02T09:22:54.382Z,1571
2022-11-02T09:29:17.376Z,1345
2022-11-02T09:35:37.386Z,1734
2022-11-02T09:42:00.348Z,2346
2022-11-02T09:48:25.104Z,2768
2022-11-02T09:54:43.382Z,2666
2022-11-02T10:11:09.061Z,2894
2022-11-02T10:17:31.853Z,2954
2022-11-02T10:23:51.351Z,1652
2022-11-02T10:30:14.405Z,3422
2022-11-02T10:36:34.356Z,1087
2022-11-02T10:42:57.364Z,3608
2022-11-02T10:49:17.388Z,3760
2022-11-02T10:55:40.338Z,3071
2022-11-02T11:02:00.479Z,4325
2022-11-02T11:08:23.375Z,4146
2022-11-02T11:21:06.351Z,1331
2022-11-02T11:27:26.361Z,2743
2022-11-02T11:33:50.496Z,1972
2022-11-02T11:40:10.442Z,2560
2022-11-02T11:46:33.443Z,4606
2022-11-02T11:52:53.375Z,4741
2022-11-02T11:59:16.328Z,4716
2022-11-02T12:05:36.427Z,5217
2022-11-02T12:11:59.332Z,4914
2022-11-02T12:18:19.403Z,4855
2022-11-02T12:24:42.492Z,4847
2022-11-02T12:31:02.331Z,4768
2022-11-02T12:37:40.213Z,4315
2022-11-02T12:43:45.386Z,4257
2022-11-02T12:50:08.364Z,3928
2022-11-02T12:56:28.376Z,3550
2022-11-02T13:02:51.436Z,3768
2022-11-02T13:09:11.366Z,3324
2022-11-02T13:15:34.345Z,2876
2022-11-02T13:21:54.477Z,1450
2022-11-02T13:28:17.351Z,2389
2022-11-02T13:34:37.384Z,2740
2022-11-02T13:41:00.458Z,2337
2022-11-02T13:47:20.328Z,2034
2022-11-02T13:53:43.393Z,1364
2022-11-02T14:00:03.433Z,1275
2022-11-02T14:06:26.426Z,1717
2022-11-02T14:12:46.413Z,1496
2022-11-02T14:19:09.556Z,1625
2022-11-02T14:25:29.369Z,1340
2022-11-02T14:31:52.350Z,1134
2022-11-02T14:38:12.429Z,1006
2022-11-02T14:44:35.413Z,953
2022-11-02T14:50:55.344Z,876
2022-11-02T14:57:18.526Z,766
2022-11-02T15:03:38.329Z,609
2022-11-02T15:10:01.372Z,471
2022-11-02T15:33:26.251Z,294
2022-11-02T15:39:46.339Z,234
2022-11-02T15:46:09.672Z,180
2022-11-02T15:52:29.411Z,132
2022-11-02T15:58:52.446Z,90
2022-11-02T16:05:12.392Z,54
2022-11-02T16:11:35.385Z,30
2022-11-02T16:17:55.339Z,14
2022-11-02T16:24:18.370Z,5
2022-11-02T16:30:38.417Z,1
2022-11-02T16:37:02.860Z,1
2022-11-02T16:43:21.355Z,0
2022-11-02T16:49:44.374Z,0
2022-11-02T16:56:04.596Z,0
2022-11-02T17:02:27.697Z,0
2022-11-02T17:08:47.701Z,0
2022-11-02T17:15:10.415Z,0
2022-11-02T17:21:30.316Z,0
2022-11-02T17:27:53.429Z,0
2022-11-02T17:34:13.417Z,0
2022-11-02T17:40:36.371Z,0
2022-11-02T17:46:56.381Z,0
2022-11-02T17:53:19.342Z,0
2022-11-02T17:59:39.366Z,0
2022-11-02T18:06:02.323Z,0
2022-11-02T18:12:22.446Z,0
2022-11-02T18:18:45.330Z,0
2022-11-02T18:25:05.479Z,0
2022-11-02T18:31:28.408Z,0
2022-11-02T18:37:48.329Z,0
2022-11-02T18:44:15.075Z,0
2022-11-02T18:50:31.321Z,0
2022-11-02T18:56:54.334Z,0
2022-11-02T19:03:14.373Z,0
2022-11-02T19:09:37.340Z,0
2022-11-02T19:15:57.418Z,0
2022-11-02T19:22:20.421Z,0
2022-11-02T19:28:40.359Z,0
2022-11-02T19:35:03.362Z,0
2022-11-02T19:41:23.387Z,0
2022-11-02T19:47:46.454Z,0
2022-11-02T19:54:06.322Z,0
2022-11-02T20:00:29.629Z,0
2022-11-02T20:06:49.427Z,0
2022-11-02T20:13:12.362Z,0
2022-11-02T20:19:32.463Z,0
2022-11-02T20:25:55.350Z,0
2022-11-02T20:48:43.266Z,0
2022-11-02T20:55:03.333Z,0
2022-11-02T21:01:26.422Z,0
2022-11-02T21:07:46.377Z,0
2022-11-02T21:14:09.342Z,0
2022-11-02T21:20:33.943Z,0
2022-11-02T21:26:52.366Z,0
2022-11-02T21:33:12.355Z,0
2022-11-02T21:39:35.407Z,0
2022-11-02T21:45:55.368Z,0
2022-11-02T21:52:18.422Z,0
2022-11-02T21:58:41.518Z,0
2022-11-02T22:05:01.414Z,0
2022-11-02T22:11:21.405Z,0
2022-11-02T22:17:49.448Z,0
2022-11-02T22:24:04.449Z,0
2022-11-02T22:30:27.382Z,0
2022-11-02T22:36:47.361Z,0
2022-11-02T22:43:10.406Z,0
2022-11-02T22:49:30.317Z,0
2022-11-02T22:55:53.362Z,0
2022-11-02T23:20:07.335Z,0
2022-11-02T23:26:27.358Z,0
2022-11-02T23:32:50.360Z,0
2022-11-02T23:39:10.396Z,0
2022-11-02T23:45:33.329Z,0
2022-11-02T23:51:53.426Z,0
2022-11-02T23:58:16.393Z,0
